WBKT

Details ICAO WBKT (KUD)
Name Kudat
Region Brunei and Malaysia
Timezone Asia/Kuching (UTC+8.0)
Plans Departing 4
Arriving 2
Stats Elevation 33 ft / 10 m (AMSL)
Location 6.924012° 116.837051°
Runways 1
Magnetic Variation 0.636° W
Sunrise 2018-05-26 21:56:47 UTC / 2018-05-27 05:56:47 Local
Sunset 2018-05-27 10:25:38 UTC / 2018-05-27 18:25:38 Local
Advertisement - Login to hide

Runways

ID Width Length Bearing (true) Bearing (mag) Surface Threshold Offset Overrun Length
22 66 ft / 20 m 2,383 ft / 726 m 220.51° 221.15° Asphalt 0 ft / 0 m 0 ft / 0 m
4 66 ft / 20 m 2,383 ft / 726 m 40.51° 41.15° Asphalt 0 ft / 0 m 0 ft / 0 m

Map

Weather


0- 5 10 15 20 25 30 35+ Temperature / ° C

Clouds and Precipitation
Forecast for 2018-05-27 12:00 UTC. Updated 3 hours ago

Ground ~20,000 ft ~40,000 ft Winds

METAR

WBKT 271400Z 10004KT 030V160 9999 FEW015 BKN280 29/26 Q1009

TAF

Not found
Warning: Do not use this data for real-world aviation or navigation. No guarantee of current accuracy is given.